sensor_id;sensor_type;location;lat;lon;timestamp;pressure;altitude;pressure_sealevel;temperature;humidity
37298;BME280;30517;51.932;4.278;2023-07-16T00:01:06;100766.44;;;22.19;45.72
37298;BME280;30517;51.932;4.278;2023-07-16T00:03:47;100663.91;;;21.58;45.23
37298;BME280;30517;51.932;4.278;2023-07-16T00:06:28;100765.53;;;22.20;45.55
37298;BME280;30517;51.932;4.278;2023-07-16T00:09:09;100772.69;;;22.19;45.17
37298;BME280;30517;51.932;4.278;2023-07-16T00:11:50;100740.34;;;22.03;45.24
37298;BME280;30517;51.932;4.278;2023-07-16T00:14:31;100759.72;;;22.10;45.64
37298;BME280;30517;51.932;4.278;2023-07-16T00:17:11;100735.28;;;21.97;45.43
37298;BME280;30517;51.932;4.278;2023-07-16T00:19:52;100760.56;;;22.10;45.40
37298;BME280;30517;51.932;4.278;2023-07-16T00:22:33;100752.69;;;22.07;45.66
37298;BME280;30517;51.932;4.278;2023-07-16T00:25:14;100676.53;;;21.56;45.38
37298;BME280;30517;51.932;4.278;2023-07-16T00:27:55;100664.22;;;21.52;45.43
37298;BME280;30517;51.932;4.278;2023-07-16T00:30:35;100752.69;;;22.07;45.42
37298;BME280;30517;51.932;4.278;2023-07-16T00:33:16;100625.00;;;21.13;45.19
37298;BME280;30517;51.932;4.278;2023-07-16T00:35:57;100690.44;;;21.64;45.50
37298;BME280;30517;51.932;4.278;2023-07-16T00:38:38;100725.75;;;21.74;45.28
37298;BME280;30517;51.932;4.278;2023-07-16T00:41:20;100636.03;;;21.25;45.28
37298;BME280;30517;51.932;4.278;2023-07-16T00:44:01;100755.81;;;21.81;45.56
37298;BME280;30517;51.932;4.278;2023-07-16T00:46:42;100770.38;;;21.94;45.38
37298;BME280;30517;51.932;4.278;2023-07-16T00:49:24;100768.53;;;21.95;45.70
37298;BME280;30517;51.932;4.278;2023-07-16T00:52:08;100751.25;;;21.83;45.53
37298;BME280;30517;51.932;4.278;2023-07-16T00:54:52;100655.84;;;21.22;45.41
37298;BME280;30517;51.932;4.278;2023-07-16T00:57:33;100767.13;;;21.87;45.68
37298;BME280;30517;51.932;4.278;2023-07-16T01:00:14;100766.41;;;21.84;45.85
37298;BME280;30517;51.932;4.278;2023-07-16T01:02:55;100681.50;;;21.28;45.72
37298;BME280;30517;51.932;4.278;2023-07-16T01:05:50;100773.31;;;21.71;45.77
37298;BME280;30517;51.932;4.278;2023-07-16T01:08:39;100770.25;;;21.78;45.55
37298;BME280;30517;51.932;4.278;2023-07-16T01:11:22;100781.00;;;21.78;45.61
37298;BME280;30517;51.932;4.278;2023-07-16T01:14:03;100772.03;;;21.79;45.53
37298;BME280;30517;51.932;4.278;2023-07-16T01:16:46;100773.47;;;21.68;45.84
37298;BME280;30517;51.932;4.278;2023-07-16T01:19:27;100732.09;;;21.54;45.54
37298;BME280;30517;51.932;4.278;2023-07-16T01:25:36;100783.13;;;21.72;45.54
37298;BME280;30517;51.932;4.278;2023-07-16T01:28:40;100775.78;;;21.75;45.58
37298;BME280;30517;51.932;4.278;2023-07-16T01:31:26;100693.41;;;21.22;45.39
37298;BME280;30517;51.932;4.278;2023-07-16T01:34:08;100768.91;;;21.70;45.41
37298;BME280;30517;51.932;4.278;2023-07-16T01:36:50;100744.16;;;21.46;45.56
37298;BME280;30517;51.932;4.278;2023-07-16T01:39:31;100761.59;;;21.54;45.26
37298;BME280;30517;51.932;4.278;2023-07-16T01:42:13;100769.06;;;21.67;45.52
37298;BME280;30517;51.932;4.278;2023-07-16T01:44:53;100769.75;;;21.53;45.55
37298;BME280;30517;51.932;4.278;2023-07-16T01:50:18;100732.78;;;21.40;45.54
37298;BME280;30517;51.932;4.278;2023-07-16T01:52:59;100796.50;;;21.54;45.70
37298;BME280;30517;51.932;4.278;2023-07-16T01:55:42;100783.72;;;21.59;45.71
37298;BME280;30517;51.932;4.278;2023-07-16T01:58:23;100751.66;;;21.39;45.39
37298;BME280;30517;51.932;4.278;2023-07-16T02:01:04;100761.44;;;21.40;45.63
37298;BME280;30517;51.932;4.278;2023-07-16T02:03:44;100707.81;;;21.19;45.79
37298;BME280;30517;51.932;4.278;2023-07-16T02:06:25;100767.28;;;21.48;45.69
37298;BME280;30517;51.932;4.278;2023-07-16T02:09:06;100771.56;;;21.52;45.68
37298;BME280;30517;51.932;4.278;2023-07-16T02:11:47;100760.56;;;21.39;45.76
37298;BME280;30517;51.932;4.278;2023-07-16T02:14:28;100729.06;;;21.24;45.97
37298;BME280;30517;51.932;4.278;2023-07-16T02:17:09;100783.31;;;21.50;45.83
37298;BME280;30517;51.932;4.278;2023-07-16T02:19:53;100766.34;;;21.49;45.70
37298;BME280;30517;51.932;4.278;2023-07-16T02:22:35;100721.91;;;21.06;45.79
37298;BME280;30517;51.932;4.278;2023-07-16T02:25:16;100743.19;;;21.28;46.01
37298;BME280;30517;51.932;4.278;2023-07-16T02:27:56;100791.91;;;21.39;45.96
37298;BME280;30517;51.932;4.278;2023-07-16T02:30:40;100728.94;;;21.08;45.95
37298;BME280;30517;51.932;4.278;2023-07-16T02:33:22;100748.72;;;21.25;45.65
37298;BME280;30517;51.932;4.278;2023-07-16T02:36:03;100789.97;;;21.41;45.84
37298;BME280;30517;51.932;4.278;2023-07-16T02:38:44;100792.81;;;21.38;45.70
37298;BME280;30517;51.932;4.278;2023-07-16T02:41:25;100751.41;;;21.06;45.95
37298;BME280;30517;51.932;4.278;2023-07-16T02:44:06;100690.19;;;20.77;45.77
37298;BME280;30517;51.932;4.278;2023-07-16T02:46:46;100786.91;;;21.30;45.95
37298;BME280;30517;51.932;4.278;2023-07-16T02:49:27;100696.06;;;20.86;45.94
37298;BME280;30517;51.932;4.278;2023-07-16T02:52:08;100687.81;;;20.71;45.83
37298;BME280;30517;51.932;4.278;2023-07-16T02:54:49;100804.78;;;21.31;45.79
37298;BME280;30517;51.932;4.278;2023-07-16T02:57:30;100685.25;;;20.68;46.21
37298;BME280;30517;51.932;4.278;2023-07-16T03:00:11;100790.72;;;21.26;46.32
37298;BME280;30517;51.932;4.278;2023-07-16T03:02:51;100719.53;;;20.81;46.75
37298;BME280;30517;51.932;4.278;2023-07-16T03:05:32;100684.47;;;20.46;46.64
37298;BME280;30517;51.932;4.278;2023-07-16T03:08:13;100815.25;;;21.16;46.38
37298;BME280;30517;51.932;4.278;2023-07-16T03:10:54;100781.13;;;21.01;46.38
37298;BME280;30517;51.932;4.278;2023-07-16T03:13:35;100659.31;;;20.29;46.09
37298;BME280;30517;51.932;4.278;2023-07-16T03:16:15;100687.59;;;20.37;46.58
37298;BME280;30517;51.932;4.278;2023-07-16T03:18:56;100812.44;;;21.19;46.48
37298;BME280;30517;51.932;4.278;2023-07-16T03:21:37;100666.00;;;20.40;46.29
37298;BME280;30517;51.932;4.278;2023-07-16T03:24:18;100805.53;;;21.14;46.52
37298;BME280;30517;51.932;4.278;2023-07-16T03:26:59;100726.53;;;20.64;46.34
37298;BME280;30517;51.932;4.278;2023-07-16T03:29:39;100810.34;;;21.07;46.48
37298;BME280;30517;51.932;4.278;2023-07-16T03:32:20;100747.25;;;20.61;46.63
37298;BME280;30517;51.932;4.278;2023-07-16T03:35:01;100791.09;;;20.78;46.72
37298;BME280;30517;51.932;4.278;2023-07-16T03:37:42;100836.28;;;21.07;47.13
37298;BME280;30517;51.932;4.278;2023-07-16T03:40:25;100739.00;;;20.45;46.87
37298;BME280;30517;51.932;4.278;2023-07-16T03:43:06;100773.56;;;20.71;47.05
37298;BME280;30517;51.932;4.278;2023-07-16T03:45:46;100838.38;;;21.00;46.98
37298;BME280;30517;51.932;4.278;2023-07-16T03:48:27;100828.44;;;21.02;46.58
37298;BME280;30517;51.932;4.278;2023-07-16T03:51:08;100829.09;;;20.88;46.46
37298;BME280;30517;51.932;4.278;2023-07-16T03:53:49;100711.84;;;20.13;46.86
37298;BME280;30517;51.932;4.278;2023-07-16T03:56:29;100758.81;;;20.41;46.70
37298;BME280;30517;51.932;4.278;2023-07-16T03:59:10;100856.28;;;20.79;47.19
37298;BME280;30517;51.932;4.278;2023-07-16T04:01:51;100854.75;;;20.94;46.72
37298;BME280;30517;51.932;4.278;2023-07-16T04:04:32;100875.47;;;20.90;47.07
37298;BME280;30517;51.932;4.278;2023-07-16T04:07:13;100837.47;;;20.81;46.64
37298;BME280;30517;51.932;4.278;2023-07-16T04:09:54;100854.50;;;20.80;47.40
37298;BME280;30517;51.932;4.278;2023-07-16T04:12:34;100858.78;;;20.84;46.90
37298;BME280;30517;51.932;4.278;2023-07-16T04:15:15;100846.38;;;20.81;46.88
37298;BME280;30517;51.932;4.278;2023-07-16T04:17:56;100859.72;;;20.83;47.03
37298;BME280;30517;51.932;4.278;2023-07-16T04:20:37;100808.81;;;20.42;47.10
37298;BME280;30517;51.932;4.278;2023-07-16T04:23:18;100785.22;;;20.29;47.03
37298;BME280;30517;51.932;4.278;2023-07-16T04:25:59;100849.13;;;20.59;47.20
37298;BME280;30517;51.932;4.278;2023-07-16T04:28:43;100881.03;;;20.65;47.52
37298;BME280;30517;51.932;4.278;2023-07-16T04:31:24;100861.97;;;20.51;47.51
37298;BME280;30517;51.932;4.278;2023-07-16T04:34:05;100881.97;;;20.64;47.11
37298;BME280;30517;51.932;4.278;2023-07-16T04:36:45;100894.38;;;20.67;47.32
37298;BME280;30517;51.932;4.278;2023-07-16T04:39:26;100881.97;;;20.64;47.30
37298;BME280;30517;51.932;4.278;2023-07-16T04:42:07;100844.94;;;20.31;47.39
37298;BME280;30517;51.932;4.278;2023-07-16T04:44:48;100774.53;;;19.87;47.63
37298;BME280;30517;51.932;4.278;2023-07-16T04:47:29;100857.06;;;20.40;47.31
37298;BME280;30517;51.932;4.278;2023-07-16T04:50:10;100830.78;;;20.28;47.44
37298;BME280;30517;51.932;4.278;2023-07-16T04:52:50;100863.06;;;20.47;47.90
37298;BME280;30517;51.932;4.278;2023-07-16T04:55:38;100922.66;;;20.52;47.68
37298;BME280;30517;51.932;4.278;2023-07-16T04:58:19;100835.59;;;20.20;46.97
37298;BME280;30517;51.932;4.278;2023-07-16T05:01:00;100893.31;;;20.49;48.15
37298;BME280;30517;51.932;4.278;2023-07-16T05:03:41;100903.13;;;20.50;47.75
37298;BME280;30517;51.932;4.278;2023-07-16T05:06:22;100865.94;;;20.42;47.33
37298;BME280;30517;51.932;4.278;2023-07-16T05:09:02;100806.50;;;19.90;47.88
37298;BME280;30517;51.932;4.278;2023-07-16T05:11:43;100813.66;;;19.89;48.08
37298;BME280;30517;51.932;4.278;2023-07-16T05:14:27;100784.22;;;19.69;48.06
37298;BME280;30517;51.932;4.278;2023-07-16T05:17:08;100893.16;;;20.31;48.12
37298;BME280;30517;51.932;4.278;2023-07-16T05:19:49;100857.38;;;20.12;47.74
37298;BME280;30517;51.932;4.278;2023-07-16T05:22:30;100913.59;;;20.56;47.76
37298;BME280;30517;51.932;4.278;2023-07-16T05:25:10;100893.16;;;20.31;48.07
37298;BME280;30517;51.932;4.278;2023-07-16T05:27:51;100934.44;;;20.48;48.17
37298;BME280;30517;51.932;4.278;2023-07-16T05:30:32;100880.53;;;20.13;48.43
37298;BME280;30517;51.932;4.278;2023-07-16T05:33:13;100922.00;;;20.25;48.45
37298;BME280;30517;51.932;4.278;2023-07-16T05:35:54;100899.69;;;20.24;47.93
37298;BME280;30517;51.932;4.278;2023-07-16T05:38:35;100774.47;;;19.44;48.50
37298;BME280;30517;51.932;4.278;2023-07-16T05:41:16;100921.00;;;20.27;48.55
37298;BME280;30517;51.932;4.278;2023-07-16T05:43:57;100832.66;;;19.83;48.30
37298;BME280;30517;51.932;4.278;2023-07-16T05:46:37;100886.75;;;20.14;48.32
37298;BME280;30517;51.932;4.278;2023-07-16T05:49:18;100948.03;;;20.43;48.44
37298;BME280;30517;51.932;4.278;2023-07-16T05:51:59;100806.94;;;19.57;48.76
37298;BME280;30517;51.932;4.278;2023-07-16T05:54:40;100905.75;;;20.07;48.87
37298;BME280;30517;51.932;4.278;2023-07-16T05:57:21;100919.88;;;20.33;48.24
37298;BME280;30517;51.932;4.278;2023-07-16T06:00:02;100916.47;;;20.29;47.74
37298;BME280;30517;51.932;4.278;2023-07-16T06:02:45;100952.66;;;20.40;48.42
37298;BME280;30517;51.932;4.278;2023-07-16T06:05:26;100938.84;;;20.28;48.23
37298;BME280;30517;51.932;4.278;2023-07-16T06:08:07;100887.31;;;20.00;48.37
37298;BME280;30517;51.932;4.278;2023-07-16T06:10:47;100963.41;;;20.38;48.55
37298;BME280;30517;51.932;4.278;2023-07-16T06:13:28;100928.69;;;20.15;48.46
37298;BME280;30517;51.932;4.278;2023-07-16T06:16:09;100948.00;;;20.23;48.48
37298;BME280;30517;51.932;4.278;2023-07-16T06:18:53;100905.03;;;20.04;48.42
37298;BME280;30517;51.932;4.278;2023-07-16T06:21:33;100962.41;;;20.41;48.64
37298;BME280;30517;51.932;4.278;2023-07-16T06:24:14;100959.28;;;20.31;48.73
37298;BME280;30517;51.932;4.278;2023-07-16T06:26:55;100891.56;;;20.05;48.46
37298;BME280;30517;51.932;4.278;2023-07-16T06:29:36;100974.78;;;20.45;48.59
37298;BME280;30517;51.932;4.278;2023-07-16T06:32:17;100972.78;;;20.50;48.56
37298;BME280;30517;51.932;4.278;2023-07-16T06:34:58;100979.13;;;20.47;48.70
37298;BME280;30517;51.932;4.278;2023-07-16T06:37:38;100890.53;;;19.87;48.72
37298;BME280;30517;51.932;4.278;2023-07-16T06:40:19;100897.66;;;19.87;48.60
37298;BME280;30517;51.932;4.278;2023-07-16T06:43:00;100971.84;;;20.29;48.52
37298;BME280;30517;51.932;4.278;2023-07-16T06:45:41;100942.00;;;20.16;48.61
37298;BME280;30517;51.932;4.278;2023-07-16T06:48:22;100935.03;;;20.12;48.36
37298;BME280;30517;51.932;4.278;2023-07-16T06:51:03;100785.88;;;19.26;48.74
37298;BME280;30517;51.932;4.278;2023-07-16T06:53:44;100929.91;;;20.06;48.69
37298;BME280;30517;51.932;4.278;2023-07-16T06:56:25;100910.03;;;19.89;48.47
37298;BME280;30517;51.932;4.278;2023-07-16T06:59:06;100927.31;;;20.04;48.73
37298;BME280;30517;51.932;4.278;2023-07-16T07:01:47;101009.94;;;20.59;48.47
37298;BME280;30517;51.932;4.278;2023-07-16T07:04:28;100852.97;;;19.67;48.71
37298;BME280;30517;51.932;4.278;2023-07-16T07:07:08;101023.84;;;20.69;48.29
37298;BME280;30517;51.932;4.278;2023-07-16T07:09:49;101015.16;;;20.62;48.69
37298;BME280;30517;51.932;4.278;2023-07-16T07:12:30;101008.34;;;20.55;48.59
37298;BME280;30517;51.932;4.278;2023-07-16T07:15:17;101029.25;;;20.67;48.59
37298;BME280;30517;51.932;4.278;2023-07-16T07:17:58;101042.59;;;20.69;48.87
37298;BME280;30517;51.932;4.278;2023-07-16T07:20:41;100963.84;;;20.27;48.62
37298;BME280;30517;51.932;4.278;2023-07-16T07:23:22;101050.63;;;20.69;48.54
37298;BME280;30517;51.932;4.278;2023-07-16T07:26:03;101005.78;;;20.50;48.62
37298;BME280;30517;51.932;4.278;2023-07-16T07:28:44;101039.84;;;20.70;48.65
37298;BME280;30517;51.932;4.278;2023-07-16T07:31:25;101035.28;;;20.72;48.60
37298;BME280;30517;51.932;4.278;2023-07-16T07:34:05;101005.06;;;20.47;48.71
37298;BME280;30517;51.932;4.278;2023-07-16T07:36:46;100960.81;;;20.37;48.45
37298;BME280;30517;51.932;4.278;2023-07-16T07:39:27;101015.03;;;20.65;48.46
37298;BME280;30517;51.932;4.278;2023-07-16T07:42:08;101016.94;;;20.63;48.49
37298;BME280;30517;51.932;4.278;2023-07-16T07:44:50;101018.91;;;20.58;48.42
37298;BME280;30517;51.932;4.278;2023-07-16T07:47:30;101059.84;;;20.84;48.21
37298;BME280;30517;51.932;4.278;2023-07-16T07:50:11;101071.38;;;20.86;48.46
37298;BME280;30517;51.932;4.278;2023-07-16T07:52:52;101069.50;;;20.88;48.44
37298;BME280;30517;51.932;4.278;2023-07-16T07:55:34;101020.88;;;20.53;48.55
37298;BME280;30517;51.932;4.278;2023-07-16T07:58:15;101071.13;;;20.92;48.30
37298;BME280;30517;51.932;4.278;2023-07-16T08:00:56;101021.66;;;20.57;48.50
37298;BME280;30517;51.932;4.278;2023-07-16T08:03:37;100978.63;;;20.38;48.55
37298;BME280;30517;51.932;4.278;2023-07-16T08:06:18;100984.16;;;20.33;48.68
37298;BME280;30517;51.932;4.278;2023-07-16T08:08:58;100990.75;;;20.46;48.44
37298;BME280;30517;51.932;4.278;2023-07-16T08:11:39;101074.09;;;21.06;48.35
37298;BME280;30517;51.932;4.278;2023-07-16T08:14:23;100989.44;;;20.58;48.13
37298;BME280;30517;51.932;4.278;2023-07-16T08:17:04;100967.53;;;20.25;48.36
37298;BME280;30517;51.932;4.278;2023-07-16T08:19:45;100979.88;;;20.51;48.00
37298;BME280;30517;51.932;4.278;2023-07-16T08:22:25;101062.94;;;20.95;48.34
37298;BME280;30517;51.932;4.278;2023-07-16T08:25:07;101056.91;;;20.90;47.96
37298;BME280;30517;51.932;4.278;2023-07-16T08:27:48;101026.25;;;20.75;48.36
37298;BME280;30517;51.932;4.278;2023-07-16T08:30:28;101069.75;;;21.04;48.28
37298;BME280;30517;51.932;4.278;2023-07-16T08:33:09;101020.53;;;20.62;48.40
37298;BME280;30517;51.932;4.278;2023-07-16T08:35:52;101060.25;;;20.95;48.18
37298;BME280;30517;51.932;4.278;2023-07-16T08:38:33;101027.38;;;20.69;47.98
37298;BME280;30517;51.932;4.278;2023-07-16T08:41:14;101106.94;;;21.33;47.51
37298;BME280;30517;51.932;4.278;2023-07-16T08:43:56;100999.94;;;20.63;47.97
37298;BME280;30517;51.932;4.278;2023-07-16T08:46:37;101110.13;;;21.21;48.23
37298;BME280;30517;51.932;4.278;2023-07-16T08:49:19;101121.41;;;21.29;48.00
37298;BME280;30517;51.932;4.278;2023-07-16T08:52:02;101116.19;;;21.26;48.00
37298;BME280;30517;51.932;4.278;2023-07-16T08:54:43;101108.44;;;21.18;48.07
37298;BME280;30517;51.932;4.278;2023-07-16T08:57:25;101113.22;;;21.32;48.07
37298;BME280;30517;51.932;4.278;2023-07-16T09:00:07;101056.66;;;20.96;47.90
37298;BME280;30517;51.932;4.278;2023-07-16T09:02:49;101045.94;;;20.96;47.78
37298;BME280;30517;51.932;4.278;2023-07-16T09:05:30;101124.78;;;21.34;48.12
37298;BME280;30517;51.932;4.278;2023-07-16T09:08:12;101078.34;;;21.12;48.06
37298;BME280;30517;51.932;4.278;2023-07-16T09:10:57;101142.44;;;21.40;47.64
37298;BME280;30517;51.932;4.278;2023-07-16T09:13:43;101080.13;;;21.11;47.85
37298;BME280;30517;51.932;4.278;2023-07-16T09:16:24;101063.31;;;21.08;47.78
37298;BME280;30517;51.932;4.278;2023-07-16T09:19:09;101127.06;;;21.43;47.88
37298;BME280;30517;51.932;4.278;2023-07-16T09:21:51;101143.00;;;21.48;47.64
37298;BME280;30517;51.932;4.278;2023-07-16T09:24:32;101012.75;;;20.76;47.83
37298;BME280;30517;51.932;4.278;2023-07-16T09:27:13;101131.19;;;21.52;47.59
37298;BME280;30517;51.932;4.278;2023-07-16T09:29:54;101130.94;;;21.58;47.50
37298;BME280;30517;51.932;4.278;2023-07-16T09:32:37;101106.03;;;21.33;47.57
37298;BME280;30517;51.932;4.278;2023-07-16T09:35:19;101138.84;;;21.61;47.31
37298;BME280;30517;51.932;4.278;2023-07-16T09:38:00;101131.31;;;21.49;47.76
37298;BME280;30517;51.932;4.278;2023-07-16T09:40:41;101047.41;;;21.03;47.68
37298;BME280;30517;51.932;4.278;2023-07-16T09:43:25;101127.84;;;21.47;47.50
37298;BME280;30517;51.932;4.278;2023-07-16T09:46:06;101142.38;;;21.62;47.53
37298;BME280;30517;51.932;4.278;2023-07-16T09:48:47;101143.66;;;21.53;47.52
37298;BME280;30517;51.932;4.278;2023-07-16T09:51:30;101138.69;;;21.44;47.31
37298;BME280;30517;51.932;4.278;2023-07-16T09:54:14;101151.84;;;21.50;47.41
37298;BME280;30517;51.932;4.278;2023-07-16T09:56:57;101175.47;;;21.62;47.52
37298;BME280;30517;51.932;4.278;2023-07-16T09:59:39;101140.78;;;21.36;47.32
37298;BME280;30517;51.932;4.278;2023-07-16T10:02:21;101090.44;;;21.00;47.35
37298;BME280;30517;51.932;4.278;2023-07-16T10:05:31;101192.66;;;21.58;47.43
37298;BME280;30517;51.932;4.278;2023-07-16T10:08:18;101171.19;;;21.58;47.20
37298;BME280;30517;51.932;4.278;2023-07-16T10:10:59;101128.63;;;21.49;47.10
37298;BME280;30517;51.932;4.278;2023-07-16T10:13:43;101190.34;;;21.71;47.12
37298;BME280;30517;51.932;4.278;2023-07-16T10:16:36;101194.41;;;21.80;47.07
37298;BME280;30517;51.932;4.278;2023-07-16T10:19:23;101088.16;;;21.11;46.89
37298;BME280;30517;51.932;4.278;2023-07-16T10:22:04;101075.97;;;21.04;47.05
37298;BME280;30517;51.932;4.278;2023-07-16T10:24:51;101194.16;;;21.86;47.00
37298;BME280;30517;51.932;4.278;2023-07-16T10:27:33;101161.91;;;21.65;46.94
37298;BME280;30517;51.932;4.278;2023-07-16T10:30:15;101191.19;;;21.92;46.88
37298;BME280;30517;51.932;4.278;2023-07-16T10:32:55;101178.91;;;21.86;46.86
37298;BME280;30517;51.932;4.278;2023-07-16T10:35:41;101216.97;;;21.96;46.74
37298;BME280;30517;51.932;4.278;2023-07-16T10:38:22;101192.13;;;21.91;46.66
37298;BME280;30517;51.932;4.278;2023-07-16T10:41:02;101107.50;;;21.41;47.17
37298;BME280;30517;51.932;4.278;2023-07-16T10:43:43;101222.81;;;22.06;46.77
37298;BME280;30517;51.932;4.278;2023-07-16T10:46:24;101224.56;;;22.07;46.93
37298;BME280;30517;51.932;4.278;2023-07-16T10:49:05;101197.50;;;21.91;46.70
37298;BME280;30517;51.932;4.278;2023-07-16T10:51:47;101236.84;;;22.13;46.46
37298;BME280;30517;51.932;4.278;2023-07-16T10:54:28;101235.03;;;22.13;46.63
37298;BME280;30517;51.932;4.278;2023-07-16T10:57:10;101241.22;;;22.15;46.66
37298;BME280;30517;51.932;4.278;2023-07-16T10:59:55;101195.00;;;21.86;46.68
37298;BME280;30517;51.932;4.278;2023-07-16T11:02:39;101240.91;;;22.23;46.54
37298;BME280;30517;51.932;4.278;2023-07-16T11:05:28;101198.84;;;22.01;46.61
37298;BME280;30517;51.932;4.278;2023-07-16T11:08:09;101240.34;;;22.15;46.66
37298;BME280;30517;51.932;4.278;2023-07-16T11:10:56;101247.75;;;22.30;46.41
37298;BME280;30517;51.932;4.278;2023-07-16T11:13:37;101261.84;;;22.35;46.45
37298;BME280;30517;51.932;4.278;2023-07-16T11:16:18;101257.44;;;22.34;46.44
37298;BME280;30517;51.932;4.278;2023-07-16T11:19:01;101250.56;;;22.27;46.52
37298;BME280;30517;51.932;4.278;2023-07-16T11:21:42;101076.75;;;21.28;46.25
37298;BME280;30517;51.932;4.278;2023-07-16T11:24:23;101253.78;;;22.35;46.41
37298;BME280;30517;51.932;4.278;2023-07-16T11:27:11;101205.44;;;22.15;46.28
37298;BME280;30517;51.932;4.278;2023-07-16T11:29:57;101254.31;;;22.43;46.30
37298;BME280;30517;51.932;4.278;2023-07-16T11:32:45;101261.44;;;22.44;46.18
37298;BME280;30517;51.932;4.278;2023-07-16T11:35:26;101250.69;;;22.44;46.25
37298;BME280;30517;51.932;4.278;2023-07-16T11:38:07;101173.59;;;22.05;46.28
37298;BME280;30517;51.932;4.278;2023-07-16T11:40:48;101245.88;;;22.32;46.37
37298;BME280;30517;51.932;4.278;2023-07-16T11:43:33;101218.47;;;22.24;46.45
37298;BME280;30517;51.932;4.278;2023-07-16T11:46:16;101168.50;;;21.99;46.41
37298;BME280;30517;51.932;4.278;2023-07-16T11:48:57;101187.53;;;22.14;46.39
37298;BME280;30517;51.932;4.278;2023-07-16T11:51:38;101267.13;;;22.57;46.38
37298;BME280;30517;51.932;4.278;2023-07-16T11:54:19;101252.56;;;22.42;46.51
37298;BME280;30517;51.932;4.278;2023-07-16T11:56:59;101258.69;;;22.46;46.58
37298;BME280;30517;51.932;4.278;2023-07-16T11:59:40;101210.41;;;22.24;46.41
37298;BME280;30517;51.932;4.278;2023-07-16T12:02:22;101268.81;;;22.60;46.02
37298;BME280;30517;51.932;4.278;2023-07-16T12:05:03;101261.63;;;22.60;46.26
37298;BME280;30517;51.932;4.278;2023-07-16T12:07:44;101279.94;;;22.71;46.32
37298;BME280;30517;51.932;4.278;2023-07-16T12:10:25;101287.88;;;22.74;46.24
37298;BME280;30517;51.932;4.278;2023-07-16T12:13:06;101269.06;;;22.74;46.29
37298;BME280;30517;51.932;4.278;2023-07-16T12:15:46;101283.94;;;22.81;46.29
37298;BME280;30517;51.932;4.278;2023-07-16T12:18:27;101256.69;;;22.70;46.25
37298;BME280;30517;51.932;4.278;2023-07-16T12:21:10;101278.38;;;22.86;46.15
37298;BME280;30517;51.932;4.278;2023-07-16T12:23:51;101292.53;;;22.89;46.37
37298;BME280;30517;51.932;4.278;2023-07-16T12:26:32;101269.56;;;22.82;46.24
37298;BME280;30517;51.932;4.278;2023-07-16T12:29:13;101255.38;;;22.79;46.26
37298;BME280;30517;51.932;4.278;2023-07-16T12:31:53;101292.16;;;22.99;46.38
37298;BME280;30517;51.932;4.278;2023-07-16T12:34:34;101291.03;;;23.03;46.32
37298;BME280;30517;51.932;4.278;2023-07-16T12:37:15;101267.31;;;22.92;46.32
37298;BME280;30517;51.932;4.278;2023-07-16T12:39:57;101304.09;;;23.12;46.19
37298;BME280;30517;51.932;4.278;2023-07-16T12:42:37;101293.97;;;23.17;46.38
37298;BME280;30517;51.932;4.278;2023-07-16T12:45:18;101295.50;;;23.23;45.60
37298;BME280;30517;51.932;4.278;2023-07-16T12:47:59;101305.00;;;23.30;45.47
37298;BME280;30517;51.932;4.278;2023-07-16T12:50:43;101276.88;;;23.18;45.62
37298;BME280;30517;51.932;4.278;2023-07-16T12:53:24;101316.38;;;23.36;45.44
37298;BME280;30517;51.932;4.278;2023-07-16T12:56:05;101280.72;;;23.31;45.36
37298;BME280;30517;51.932;4.278;2023-07-16T12:58:47;101315.03;;;23.45;45.46
37298;BME280;30517;51.932;4.278;2023-07-16T13:01:29;101309.50;;;23.48;45.15
37298;BME280;30517;51.932;4.278;2023-07-16T13:04:10;101276.13;;;23.33;45.50
37298;BME280;30517;51.932;4.278;2023-07-16T13:06:52;101324.91;;;23.63;45.06
37298;BME280;30517;51.932;4.278;2023-07-16T13:09:33;101316.59;;;23.68;45.00
37298;BME280;30517;51.932;4.278;2023-07-16T13:12:13;101292.09;;;23.55;45.23
37298;BME280;30517;51.932;4.278;2023-07-16T13:14:54;101325.22;;;23.76;45.19
37298;BME280;30517;51.932;4.278;2023-07-16T13:17:35;101311.75;;;23.76;45.37
37298;BME280;30517;51.932;4.278;2023-07-16T13:20:17;101319.19;;;23.89;44.85
37298;BME280;30517;51.932;4.278;2023-07-16T13:23:00;101264.38;;;23.53;45.03
37298;BME280;30517;51.932;4.278;2023-07-16T13:25:41;101308.00;;;23.79;45.08
37298;BME280;30517;51.932;4.278;2023-07-16T13:28:22;101296.28;;;23.80;44.64
37298;BME280;30517;51.932;4.278;2023-07-16T13:31:04;101323.97;;;24.01;45.08
37298;BME280;30517;51.932;4.278;2023-07-16T13:33:46;101326.13;;;24.12;44.72
37298;BME280;30517;51.932;4.278;2023-07-16T13:36:26;101334.91;;;24.15;45.05
37298;BME280;30517;51.932;4.278;2023-07-16T13:39:07;101333.41;;;24.10;45.21
37298;BME280;30517;51.932;4.278;2023-07-16T13:41:48;101339.53;;;24.31;45.00
37298;BME280;30517;51.932;4.278;2023-07-16T13:44:29;101303.78;;;24.10;45.06
37298;BME280;30517;51.932;4.278;2023-07-16T13:47:10;101327.72;;;24.33;44.92
37298;BME280;30517;51.932;4.278;2023-07-16T13:49:51;101345.09;;;24.45;44.78
37298;BME280;30517;51.932;4.278;2023-07-16T13:52:31;101352.94;;;24.49;44.68
37298;BME280;30517;51.932;4.278;2023-07-16T13:55:12;101330.78;;;24.43;44.70
37298;BME280;30517;51.932;4.278;2023-07-16T13:57:53;101332.56;;;24.44;44.65
37298;BME280;30517;51.932;4.278;2023-07-16T14:00:35;101357.69;;;24.62;44.53
37298;BME280;30517;51.932;4.278;2023-07-16T14:03:16;101337.63;;;24.50;44.85
37298;BME280;30517;51.932;4.278;2023-07-16T14:05:57;101358.00;;;24.56;44.67
37298;BME280;30517;51.932;4.278;2023-07-16T14:08:37;101368.13;;;24.68;44.79
37298;BME280;30517;51.932;4.278;2023-07-16T14:11:19;101323.66;;;24.42;44.65